createdAt,value
2019-04-23T00:00:10.270Z,63.40
2019-04-23T00:05:48.051Z,65.00
2019-04-23T00:08:39.729Z,64.40
2019-04-23T00:14:15.105Z,65.40
2019-04-23T00:17:04.503Z,65.70
2019-04-23T00:19:45.102Z,65.70
2019-04-23T00:28:45.557Z,67.60
2019-04-23T00:31:34.991Z,68.20
2019-04-23T00:34:30.804Z,68.70
2019-04-23T00:37:09.866Z,68.80
2019-04-23T00:39:51.177Z,68.90
2019-04-23T00:42:40.618Z,69.50
2019-04-23T00:45:16.779Z,70.00
2019-04-23T00:48:02.224Z,70.50
2019-04-23T00:50:52.826Z,70.70
2019-04-23T00:53:32.871Z,71.00
2019-04-23T00:59:08.868Z,72.30
2019-04-23T01:01:55.773Z,72.50
2019-04-23T01:04:41.783Z,72.80
2019-04-23T01:07:24.656Z,72.80
2019-04-23T01:13:14.441Z,74.00
2019-04-23T01:16:00.758Z,74.50
2019-04-23T01:19:24.829Z,74.90
2019-04-23T01:21:32.691Z,74.90
2019-04-23T01:33:43.549Z,76.80
2019-04-23T01:36:34.691Z,77.30
2019-04-23T01:39:06.223Z,77.30
2019-04-23T01:41:57.991Z,77.50
2019-04-23T01:44:42.746Z,78.20
2019-04-23T01:47:28.068Z,78.30
2019-04-23T01:50:14.350Z,78.40
2019-04-23T01:52:59.271Z,78.80
2019-04-23T01:56:01.278Z,79.80
2019-04-23T02:01:17.555Z,79.60
2019-04-23T02:04:03.549Z,80.20
2019-04-23T02:06:44.954Z,80.60
2019-04-23T02:12:27.735Z,81.10
2019-04-23T02:15:12.123Z,81.20
2019-04-23T02:17:58.622Z,81.60
2019-04-23T02:20:43.030Z,81.70
2019-04-23T02:26:43.543Z,82.60
2019-04-23T02:29:32.653Z,82.90
2019-04-23T02:32:09.422Z,83.30
2019-04-23T02:37:54.143Z,83.30
2019-04-23T02:40:37.992Z,83.70
2019-04-23T02:43:16.336Z,84.00
2019-04-23T02:54:38.067Z,84.60
2019-04-23T02:57:13.414Z,84.60
2019-04-23T03:08:02.218Z,85.60
2019-04-23T03:10:59.656Z,85.50
2019-04-23T03:13:48.270Z,86.10
2019-04-23T03:19:45.813Z,86.00
2019-04-23T03:28:55.723Z,86.70
2019-04-23T03:40:06.081Z,86.90
2019-04-23T03:42:42.360Z,87.30
2019-04-23T03:51:03.202Z,87.80
2019-04-23T03:57:00.270Z,87.60
2019-04-23T04:04:53.533Z,88.50
2019-04-23T04:08:02.563Z,88.30
2019-04-23T04:10:40.984Z,88.40
2019-04-23T04:13:22.802Z,88.80
2019-04-23T04:16:04.944Z,89.00
2019-04-23T04:19:09.019Z,89.00
2019-04-23T04:21:33.784Z,89.10
2019-04-23T04:27:08.037Z,89.30
2019-04-23T04:35:24.780Z,89.50
2019-04-23T04:38:24.936Z,89.50
2019-04-23T04:41:04.302Z,89.70
2019-04-23T04:43:50.869Z,89.80
2019-04-23T04:46:43.842Z,89.90
2019-04-23T04:54:44.498Z,89.70
2019-04-23T05:00:32.908Z,89.60
2019-04-23T05:08:38.319Z,89.00
2019-04-23T05:11:28.823Z,88.40
2019-04-23T05:14:08.478Z,88.50
2019-04-23T05:16:54.734Z,88.10
2019-04-23T05:19:51.328Z,87.10
2019-04-23T05:22:20.885Z,87.10
2019-04-23T05:25:09.141Z,86.80
2019-04-23T05:28:02.766Z,86.60
2019-04-23T05:30:46.389Z,85.80
2019-04-23T05:33:29.785Z,85.70
2019-04-23T05:36:22.843Z,85.10
2019-04-23T05:41:43.673Z,84.50
2019-04-23T05:44:38.260Z,83.80
2019-04-23T05:47:25.585Z,83.20
2019-04-23T05:50:02.149Z,83.00
2019-04-23T05:53:07.840Z,82.80
2019-04-23T05:55:38.861Z,82.70
2019-04-23T05:58:22.145Z,82.10
2019-04-23T06:01:42.351Z,81.40
2019-04-23T06:07:08.394Z,80.70
2019-04-23T06:09:48.010Z,80.00
2019-04-23T06:12:31.409Z,79.90
2019-04-23T06:15:31.489Z,79.90
2019-04-23T06:18:26.671Z,80.00
2019-04-23T06:29:57.058Z,77.80
2019-04-23T06:32:42.857Z,76.90
2019-04-23T06:35:34.040Z,76.90
2019-04-23T06:41:11.728Z,77.00
2019-04-23T06:55:06.820Z,73.80
2019-04-23T06:58:10.554Z,73.20
2019-04-23T07:00:48.261Z,73.40
2019-04-23T07:03:38.862Z,72.80
2019-04-23T07:06:23.591Z,73.00
2019-04-23T07:11:51.380Z,71.30
2019-04-23T07:14:44.000Z,72.20
2019-04-23T07:17:21.174Z,71.50
2019-04-23T07:20:08.333Z,71.10
2019-04-23T07:22:43.151Z,71.00
2019-04-23T07:25:42.523Z,70.50
2019-04-23T07:28:26.151Z,70.10
2019-04-23T07:31:29.648Z,69.70
2019-04-23T07:34:01.182Z,69.70
2019-04-23T07:36:40.608Z,69.20
2019-04-23T07:40:10.978Z,68.10
2019-04-23T07:46:34.538Z,67.90
2019-04-23T07:49:20.229Z,66.20
2019-04-23T07:52:03.071Z,65.70
2019-04-23T07:57:49.368Z,64.60
2019-04-23T08:00:26.392Z,64.10
2019-04-23T08:02:57.794Z,64.00
2019-04-23T08:05:44.098Z,64.30
2019-04-23T08:08:33.313Z,62.20
2019-04-23T08:16:37.043Z,61.40
2019-04-23T08:19:34.950Z,61.00
2019-04-23T08:25:19.339Z,60.60
2019-04-23T08:28:13.566Z,61.60
2019-04-23T08:30:59.050Z,59.90
2019-04-23T08:33:57.344Z,59.70
2019-04-23T08:39:30.477Z,59.80
2019-04-23T08:42:28.687Z,60.10
2019-04-23T08:51:35.182Z,58.40
2019-04-23T08:54:08.817Z,57.40
2019-04-23T08:56:49.998Z,57.30
2019-04-23T08:59:38.905Z,57.40
2019-04-23T09:05:08.803Z,56.80
2019-04-23T09:10:46.203Z,54.50
2019-04-23T09:16:25.433Z,55.40
2019-04-23T09:19:14.635Z,55.10
2019-04-23T09:25:18.532Z,55.50
2019-04-23T09:27:53.281Z,54.10
2019-04-23T09:30:42.799Z,54.30
2019-04-23T09:37:00.289Z,53.10
2019-04-23T09:39:52.865Z,53.50
2019-04-23T09:45:48.632Z,52.60
2019-04-23T09:48:50.904Z,52.70
2019-04-23T09:51:38.633Z,51.80
2019-04-23T09:54:26.623Z,51.40
2019-04-23T09:57:17.122Z,51.40
2019-04-23T10:00:13.117Z,51.40
2019-04-23T10:02:41.124Z,51.60
2019-04-23T10:05:26.242Z,51.90
2019-04-23T10:08:05.135Z,50.10
2019-04-23T10:10:43.165Z,49.90
2019-04-23T10:13:27.726Z,50.00
2019-04-23T10:16:15.648Z,51.00
2019-04-23T10:19:00.656Z,50.80
2019-04-23T10:21:53.259Z,50.70
2019-04-23T10:24:28.162Z,49.80
2019-04-23T10:27:12.660Z,47.80
2019-04-23T10:29:57.051Z,49.40
2019-04-23T10:32:29.822Z,48.70
2019-04-23T10:35:22.249Z,48.30
2019-04-23T10:38:08.172Z,48.30
2019-04-23T10:41:06.585Z,47.00
2019-04-23T10:43:56.792Z,46.30
2019-04-23T10:47:40.325Z,47.10
2019-04-23T10:50:51.260Z,47.40
2019-04-23T10:54:03.110Z,47.00
2019-04-23T10:56:40.052Z,45.60
2019-04-23T10:59:06.531Z,45.80
2019-04-23T11:02:22.261Z,46.50
2019-04-23T11:13:21.013Z,45.40
2019-04-23T11:16:40.062Z,45.50
2019-04-23T11:21:48.020Z,46.00
2019-04-23T11:24:37.985Z,46.00
2019-04-23T11:27:24.479Z,45.10
2019-04-23T11:30:10.582Z,45.80
2019-04-23T11:32:53.762Z,45.30
2019-04-23T11:35:50.617Z,44.90
2019-04-23T11:38:48.646Z,45.50
2019-04-23T11:41:09.143Z,44.30
2019-04-23T11:44:17.306Z,44.70
2019-04-23T11:46:53.483Z,45.40
2019-04-23T11:52:41.668Z,45.30
2019-04-23T12:01:52.201Z,45.10
2019-04-23T12:04:48.510Z,45.00
2019-04-23T12:07:41.244Z,44.90
2019-04-23T12:17:15.377Z,44.90
2019-04-23T12:20:08.067Z,45.90
2019-04-23T12:22:54.458Z,44.50
2019-04-23T12:25:36.591Z,43.90
2019-04-23T12:28:27.714Z,43.60
2019-04-23T12:31:29.356Z,44.20
2019-04-23T12:33:52.282Z,44.60
2019-04-23T12:39:54.618Z,44.10
2019-04-23T12:42:44.424Z,44.00
2019-04-23T12:45:07.018Z,43.80
2019-04-23T12:47:43.687Z,43.70
2019-04-23T12:50:30.363Z,43.60
2019-04-23T12:52:45.177Z,43.50
2019-04-23T12:58:11.476Z,44.10
2019-04-23T13:00:45.802Z,43.80
2019-04-23T13:03:41.429Z,43.20
2019-04-23T13:06:24.865Z,44.50
2019-04-23T13:09:21.751Z,43.90
2019-04-23T13:11:57.808Z,43.50
2019-04-23T13:14:49.560Z,43.50
2019-04-23T13:17:38.050Z,44.20
2019-04-23T13:20:19.494Z,44.40
2019-04-23T13:23:01.732Z,44.50
2019-04-23T13:26:17.534Z,44.40
2019-04-23T13:29:13.854Z,44.30
2019-04-23T13:31:51.841Z,43.20
2019-04-23T13:34:37.113Z,43.70
2019-04-23T13:37:33.136Z,43.70
2019-04-23T13:40:10.919Z,43.70
2019-04-23T13:53:59.059Z,43.90
2019-04-23T13:57:16.157Z,44.00
2019-04-23T13:59:38.944Z,43.80
2019-04-23T14:05:26.861Z,43.60
2019-04-23T14:08:13.252Z,43.90
2019-04-23T14:10:55.858Z,43.20
2019-04-23T14:13:55.597Z,43.70
2019-04-23T14:19:06.761Z,44.10
2019-04-23T14:22:18.467Z,43.90
2019-04-23T14:24:53.134Z,44.70
2019-04-23T14:27:37.143Z,44.40
2019-04-23T14:30:21.813Z,44.30
2019-04-23T14:33:02.775Z,44.30
2019-04-23T14:35:45.242Z,44.20
2019-04-23T14:41:23.468Z,45.20
2019-04-23T14:47:40.568Z,45.20
2019-04-23T14:50:29.399Z,45.00
2019-04-23T14:55:50.934Z,45.20
2019-04-23T15:01:27.307Z,45.70
2019-04-23T15:04:24.284Z,45.80
2019-04-23T15:07:00.714Z,45.40
2019-04-23T15:12:30.188Z,45.60
2019-04-23T15:17:58.137Z,45.80
2019-04-23T15:21:05.233Z,46.40
2019-04-23T15:28:50.983Z,47.00
2019-04-23T15:31:59.220Z,46.80
2019-04-23T15:34:41.337Z,46.80
2019-04-23T15:37:48.901Z,46.60
2019-04-23T15:40:08.075Z,46.70
2019-04-23T15:43:05.822Z,47.60
2019-04-23T15:45:48.978Z,47.30
2019-04-23T15:48:31.964Z,47.40
2019-04-23T15:51:19.881Z,47.50
2019-04-23T15:54:04.831Z,47.70
2019-04-23T15:56:50.039Z,47.90
2019-04-23T16:01:50.643Z,48.10
2019-04-23T16:04:35.717Z,48.20
2019-04-23T16:07:37.226Z,48.30
2019-04-23T16:10:38.075Z,48.90
2019-04-23T16:13:14.881Z,48.00
2019-04-23T16:15:57.984Z,48.30
2019-04-23T16:24:36.941Z,48.80
2019-04-23T16:27:21.526Z,49.40
2019-04-23T16:30:13.842Z,49.70
2019-04-23T16:33:13.075Z,49.20
2019-04-23T16:36:18.389Z,49.50
2019-04-23T16:39:07.507Z,49.50
2019-04-23T16:41:42.278Z,49.50
2019-04-23T16:44:44.631Z,50.20
2019-04-23T16:53:03.961Z,51.70
2019-04-23T16:58:45.845Z,51.40
2019-04-23T17:04:00.716Z,51.90
2019-04-23T17:06:48.440Z,52.30
2019-04-23T17:09:37.070Z,52.10
2019-04-23T17:12:38.813Z,52.60
2019-04-23T17:15:07.571Z,52.70
2019-04-23T17:17:56.193Z,52.80
2019-04-23T17:24:07.933Z,53.10
2019-04-23T17:29:10.947Z,53.60
2019-04-23T17:31:38.137Z,53.50
2019-04-23T17:37:30.697Z,53.90
2019-04-23T17:43:01.614Z,54.20
2019-04-23T17:46:07.883Z,54.20
2019-04-23T17:48:56.556Z,54.40
2019-04-23T17:51:31.195Z,54.80
2019-04-23T17:54:24.740Z,54.80
2019-04-23T18:00:16.073Z,55.30
2019-04-23T18:05:54.420Z,55.70
2019-04-23T18:08:32.926Z,55.90
2019-04-23T18:11:17.897Z,56.20
2019-04-23T18:14:02.592Z,56.10
2019-04-23T18:17:06.348Z,56.50
2019-04-23T18:19:29.855Z,56.50
2019-04-23T18:22:35.562Z,56.80
2019-04-23T18:28:25.983Z,57.10
2019-04-23T18:37:09.275Z,57.80
2019-04-23T18:42:41.078Z,58.30
2019-04-23T18:48:32.933Z,58.50
2019-04-23T18:51:40.491Z,58.90
2019-04-23T18:53:56.348Z,59.00
2019-04-23T18:57:09.335Z,59.30
2019-04-23T19:12:36.335Z,60.00
2019-04-23T19:23:25.743Z,61.60
2019-04-23T19:26:15.438Z,61.60
2019-04-23T19:28:55.770Z,62.10
2019-04-23T19:31:56.947Z,62.60
2019-04-23T19:34:55.927Z,62.90
2019-04-23T19:40:41.040Z,63.80
2019-04-23T19:43:37.131Z,64.00
2019-04-23T19:46:38.552Z,64.60
2019-04-23T19:49:13.169Z,64.60
2019-04-23T19:57:11.882Z,65.50
2019-04-23T20:00:14.094Z,65.40
2019-04-23T20:05:35.614Z,66.60
2019-04-23T20:08:22.513Z,66.10
2019-04-23T20:11:01.061Z,66.40
2019-04-23T20:13:50.689Z,67.10
2019-04-23T20:16:38.415Z,67.60
2019-04-23T20:19:23.953Z,68.00
2019-04-23T20:25:10.111Z,68.20
2019-04-23T20:30:54.457Z,68.60
2019-04-23T20:36:38.845Z,69.20
2019-04-23T20:50:10.165Z,72.40
2019-04-23T20:53:00.029Z,72.40
2019-04-23T20:56:01.829Z,73.10
2019-04-23T21:04:57.282Z,74.80
2019-04-23T21:18:57.152Z,78.10
2019-04-23T21:22:21.484Z,77.80
2019-04-23T21:25:14.378Z,78.20
2019-04-23T21:28:10.040Z,79.10
2019-04-23T21:31:00.858Z,79.30
2019-04-23T21:34:03.137Z,80.40
2019-04-23T21:36:46.015Z,80.50
2019-04-23T21:43:09.316Z,82.00
2019-04-23T21:46:14.563Z,82.30
2019-04-23T21:51:49.296Z,83.90
2019-04-23T21:54:12.402Z,84.00
2019-04-23T21:57:00.540Z,84.80
2019-04-23T21:59:55.485Z,85.30
2019-04-23T22:02:27.626Z,85.90
2019-04-23T22:05:32.523Z,86.80
2019-04-23T22:08:26.212Z,86.60
2019-04-23T22:11:31.000Z,87.40
2019-04-23T22:13:58.228Z,87.70
2019-04-23T22:16:41.021Z,88.20
2019-04-23T22:19:20.198Z,89.20
2019-04-23T22:22:16.225Z,88.50
2019-04-23T22:24:52.813Z,88.70
2019-04-23T22:27:24.246Z,89.50
2019-04-23T22:30:01.129Z,89.60
2019-04-23T22:35:22.021Z,90.30
2019-04-23T22:38:09.583Z,90.30
2019-04-23T22:40:28.794Z,90.60
2019-04-23T22:46:07.945Z,90.60
2019-04-23T22:51:55.337Z,91.00
2019-04-23T22:54:30.512Z,91.20
2019-04-23T22:57:09.581Z,91.40
2019-04-23T23:00:14.363Z,91.60
2019-04-23T23:03:11.581Z,91.50
2019-04-23T23:06:12.788Z,91.70
2019-04-23T23:08:55.223Z,91.70
2019-04-23T23:11:34.900Z,91.80
2019-04-23T23:17:02.267Z,91.90
2019-04-23T23:20:01.105Z,91.80
2019-04-23T23:22:43.820Z,91.80
2019-04-23T23:28:11.854Z,92.00
2019-04-23T23:31:07.006Z,92.00
2019-04-23T23:33:44.065Z,91.90
2019-04-23T23:39:18.129Z,91.90
2019-04-23T23:42:07.425Z,92.00
2019-04-23T23:47:33.955Z,92.30
2019-04-23T23:50:35.360Z,92.20
2019-04-23T23:53:11.758Z,92.20
2019-04-23T23:55:58.518Z,92.10
2019-04-23T23:58:57.006Z,92.00
